sensor_id;sensor_type;location;lat;lon;timestamp;temperature;humidity
19805;DHT22;10062;51.052;13.756;2023-05-10T00:01:19;13.90;1.00
19805;DHT22;10062;51.052;13.756;2023-05-10T00:03:50;13.80;1.00
19805;DHT22;10062;51.052;13.756;2023-05-10T00:08:54;13.70;1.00
19805;DHT22;10062;51.052;13.756;2023-05-10T00:11:27;13.70;1.00
19805;DHT22;10062;51.052;13.756;2023-05-10T00:13:59;13.70;1.00
19805;DHT22;10062;51.052;13.756;2023-05-10T00:16:30;13.60;1.00
19805;DHT22;10062;51.052;13.756;2023-05-10T00:19:02;13.60;1.00
19805;DHT22;10062;51.052;13.756;2023-05-10T00:21:33;13.60;1.00
19805;DHT22;10062;51.052;13.756;2023-05-10T00:24:05;13.50;1.00
19805;DHT22;10062;51.052;13.756;2023-05-10T00:26:38;13.50;1.00
19805;DHT22;10062;51.052;13.756;2023-05-10T00:31:42;13.50;1.00
19805;DHT22;10062;51.052;13.756;2023-05-10T00:34:14;13.50;1.00
19805;DHT22;10062;51.052;13.756;2023-05-10T00:36:45;13.40;1.00
19805;DHT22;10062;51.052;13.756;2023-05-10T00:39:17;13.30;1.00
19805;DHT22;10062;51.052;13.756;2023-05-10T00:41:50;13.30;1.00
19805;DHT22;10062;51.052;13.756;2023-05-10T00:44:22;13.30;1.00
19805;DHT22;10062;51.052;13.756;2023-05-10T00:46:54;13.40;1.00
19805;DHT22;10062;51.052;13.756;2023-05-10T00:49:26;13.30;1.00
19805;DHT22;10062;51.052;13.756;2023-05-10T00:51:57;13.40;1.00
19805;DHT22;10062;51.052;13.756;2023-05-10T00:54:30;13.30;1.00
19805;DHT22;10062;51.052;13.756;2023-05-10T00:57:03;13.30;1.00
19805;DHT22;10062;51.052;13.756;2023-05-10T00:59:35;13.20;21.00
19805;DHT22;10062;51.052;13.756;2023-05-10T01:04:39;13.20;1.00
19805;DHT22;10062;51.052;13.756;2023-05-10T01:07:11;13.20;19.50
19805;DHT22;10062;51.052;13.756;2023-05-10T01:09:43;13.20;8.90
19805;DHT22;10062;51.052;13.756;2023-05-10T01:12:17;13.00;34.10
19805;DHT22;10062;51.052;13.756;2023-05-10T01:14:48;13.00;51.50
19805;DHT22;10062;51.052;13.756;2023-05-10T01:17:21;13.00;39.70
19805;DHT22;10062;51.052;13.756;2023-05-10T01:19:53;13.00;99.90
19805;DHT22;10062;51.052;13.756;2023-05-10T01:22:42;12.90;99.90
19805;DHT22;10062;51.052;13.756;2023-05-10T01:25:44;12.90;99.90
19805;DHT22;10062;51.052;13.756;2023-05-10T01:28:58;12.80;99.90
19805;DHT22;10062;51.052;13.756;2023-05-10T01:32:03;12.80;99.90
19805;DHT22;10062;51.052;13.756;2023-05-10T01:34:44;12.80;99.90
19805;DHT22;10062;51.052;13.756;2023-05-10T01:37:21;12.70;99.90
19805;DHT22;10062;51.052;13.756;2023-05-10T01:40:01;12.60;99.90
19805;DHT22;10062;51.052;13.756;2023-05-10T01:42:39;12.70;99.90
19805;DHT22;10062;51.052;13.756;2023-05-10T01:45:16;12.70;99.90
19805;DHT22;10062;51.052;13.756;2023-05-10T01:47:54;12.60;99.90
19805;DHT22;10062;51.052;13.756;2023-05-10T01:50:30;12.60;99.90
19805;DHT22;10062;51.052;13.756;2023-05-10T01:53:06;12.60;99.90
19805;DHT22;10062;51.052;13.756;2023-05-10T01:55:43;12.60;99.90
19805;DHT22;10062;51.052;13.756;2023-05-10T01:58:18;12.40;99.90
19805;DHT22;10062;51.052;13.756;2023-05-10T02:00:52;12.40;99.90
19805;DHT22;10062;51.052;13.756;2023-05-10T02:03:27;12.40;99.90
19805;DHT22;10062;51.052;13.756;2023-05-10T02:05:59;12.30;99.90
19805;DHT22;10062;51.052;13.756;2023-05-10T02:08:33;12.30;99.90
19805;DHT22;10062;51.052;13.756;2023-05-10T02:11:08;12.20;99.90
19805;DHT22;10062;51.052;13.756;2023-05-10T02:13:41;12.20;1.00
19805;DHT22;10062;51.052;13.756;2023-05-10T02:16:14;12.30;1.00
19805;DHT22;10062;51.052;13.756;2023-05-10T02:18:49;12.20;1.00
19805;DHT22;10062;51.052;13.756;2023-05-10T02:21:23;12.30;1.00
19805;DHT22;10062;51.052;13.756;2023-05-10T02:23:55;12.30;1.00
19805;DHT22;10062;51.052;13.756;2023-05-10T02:26:29;12.20;1.00
19805;DHT22;10062;51.052;13.756;2023-05-10T02:29:01;12.20;1.00
19805;DHT22;10062;51.052;13.756;2023-05-10T02:31:34;12.30;1.00
19805;DHT22;10062;51.052;13.756;2023-05-10T02:34:11;15.00;1.00
19805;DHT22;10062;51.052;13.756;2023-05-10T02:39:15;12.00;1.00
19805;DHT22;10062;51.052;13.756;2023-05-10T02:41:50;12.00;1.00
19805;DHT22;10062;51.052;13.756;2023-05-10T02:44:22;11.90;1.00
19805;DHT22;10062;51.052;13.756;2023-05-10T02:49:28;11.90;1.00
19805;DHT22;10062;51.052;13.756;2023-05-10T02:52:01;11.90;1.00
19805;DHT22;10062;51.052;13.756;2023-05-10T02:54:41;12.00;1.00
19805;DHT22;10062;51.052;13.756;2023-05-10T02:57:16;11.90;1.00
19805;DHT22;10062;51.052;13.756;2023-05-10T02:59:49;11.90;1.00
19805;DHT22;10062;51.052;13.756;2023-05-10T03:02:21;12.00;1.00
19805;DHT22;10062;51.052;13.756;2023-05-10T03:04:54;11.90;1.00
19805;DHT22;10062;51.052;13.756;2023-05-10T03:07:26;11.80;1.00
19805;DHT22;10062;51.052;13.756;2023-05-10T03:12:38;11.90;1.00
19805;DHT22;10062;51.052;13.756;2023-05-10T03:15:17;11.90;1.00
19805;DHT22;10062;51.052;13.756;2023-05-10T03:17:56;11.90;1.00
19805;DHT22;10062;51.052;13.756;2023-05-10T03:20:35;11.90;1.00
19805;DHT22;10062;51.052;13.756;2023-05-10T03:23:11;11.80;1.00
19805;DHT22;10062;51.052;13.756;2023-05-10T03:28:18;11.80;1.00
19805;DHT22;10062;51.052;13.756;2023-05-10T03:30:52;11.80;1.00
19805;DHT22;10062;51.052;13.756;2023-05-10T03:33:24;11.80;1.00
19805;DHT22;10062;51.052;13.756;2023-05-10T03:35:57;11.90;1.00
19805;DHT22;10062;51.052;13.756;2023-05-10T03:41:02;11.90;1.00
19805;DHT22;10062;51.052;13.756;2023-05-10T03:43:34;11.90;1.00
19805;DHT22;10062;51.052;13.756;2023-05-10T03:46:06;12.00;1.00
19805;DHT22;10062;51.052;13.756;2023-05-10T03:51:12;12.00;1.00
19805;DHT22;10062;51.052;13.756;2023-05-10T03:53:44;12.00;1.00
19805;DHT22;10062;51.052;13.756;2023-05-10T03:58:49;11.90;1.00
19805;DHT22;10062;51.052;13.756;2023-05-10T04:01:21;11.90;1.00
19805;DHT22;10062;51.052;13.756;2023-05-10T04:03:53;11.90;1.00
19805;DHT22;10062;51.052;13.756;2023-05-10T04:06:26;11.80;1.00
19805;DHT22;10062;51.052;13.756;2023-05-10T04:08:58;11.70;27.80
19805;DHT22;10062;51.052;13.756;2023-05-10T04:11:34;11.90;1.00
19805;DHT22;10062;51.052;13.756;2023-05-10T04:19:10;11.80;1.00
19805;DHT22;10062;51.052;13.756;2023-05-10T04:21:43;11.90;15.70
19805;DHT22;10062;51.052;13.756;2023-05-10T04:24:15;11.80;99.90
19805;DHT22;10062;51.052;13.756;2023-05-10T04:26:46;11.90;36.00
19805;DHT22;10062;51.052;13.756;2023-05-10T04:29:18;12.00;1.00
19805;DHT22;10062;51.052;13.756;2023-05-10T04:31:50;12.00;1.00
19805;DHT22;10062;51.052;13.756;2023-05-10T04:34:22;12.10;1.00
19805;DHT22;10062;51.052;13.756;2023-05-10T04:36:55;12.00;1.00
19805;DHT22;10062;51.052;13.756;2023-05-10T04:39:26;12.00;1.00
19805;DHT22;10062;51.052;13.756;2023-05-10T04:41:58;12.10;1.00
19805;DHT22;10062;51.052;13.756;2023-05-10T04:47:02;12.20;1.00
19805;DHT22;10062;51.052;13.756;2023-05-10T04:49:34;12.30;1.00
19805;DHT22;10062;51.052;13.756;2023-05-10T04:52:07;12.20;1.00
19805;DHT22;10062;51.052;13.756;2023-05-10T04:54:39;12.40;1.00
19805;DHT22;10062;51.052;13.756;2023-05-10T04:57:10;12.30;1.00
19805;DHT22;10062;51.052;13.756;2023-05-10T04:59:42;12.30;1.00
19805;DHT22;10062;51.052;13.756;2023-05-10T05:04:47;12.40;1.00
19805;DHT22;10062;51.052;13.756;2023-05-10T05:07:22;12.50;1.00
19805;DHT22;10062;51.052;13.756;2023-05-10T05:09:53;12.50;1.00
19805;DHT22;10062;51.052;13.756;2023-05-10T05:12:25;12.50;1.00
19805;DHT22;10062;51.052;13.756;2023-05-10T05:17:31;12.60;1.00
19805;DHT22;10062;51.052;13.756;2023-05-10T05:20:05;12.60;1.00
19805;DHT22;10062;51.052;13.756;2023-05-10T05:22:39;12.70;1.00
19805;DHT22;10062;51.052;13.756;2023-05-10T05:25:10;12.80;1.00
19805;DHT22;10062;51.052;13.756;2023-05-10T05:27:44;12.80;1.00
19805;DHT22;10062;51.052;13.756;2023-05-10T05:30:15;12.90;1.00
19805;DHT22;10062;51.052;13.756;2023-05-10T05:32:47;13.10;1.00
19805;DHT22;10062;51.052;13.756;2023-05-10T05:35:19;13.10;1.00
19805;DHT22;10062;51.052;13.756;2023-05-10T05:37:54;13.20;1.00
19805;DHT22;10062;51.052;13.756;2023-05-10T05:40:26;13.20;1.00
19805;DHT22;10062;51.052;13.756;2023-05-10T05:45:29;13.30;1.00
19805;DHT22;10062;51.052;13.756;2023-05-10T05:48:01;13.30;1.00
19805;DHT22;10062;51.052;13.756;2023-05-10T05:50:33;13.50;1.00
19805;DHT22;10062;51.052;13.756;2023-05-10T05:53:07;13.60;1.00
19805;DHT22;10062;51.052;13.756;2023-05-10T05:55:39;13.80;1.00
19805;DHT22;10062;51.052;13.756;2023-05-10T06:00:44;13.70;1.00
19805;DHT22;10062;51.052;13.756;2023-05-10T06:03:16;13.80;1.00
19805;DHT22;10062;51.052;13.756;2023-05-10T06:08:24;13.90;1.00
19805;DHT22;10062;51.052;13.756;2023-05-10T06:10:56;14.00;1.00
19805;DHT22;10062;51.052;13.756;2023-05-10T06:13:28;14.00;1.00
19805;DHT22;10062;51.052;13.756;2023-05-10T06:16:02;14.20;1.00
19805;DHT22;10062;51.052;13.756;2023-05-10T06:18:34;14.20;1.00
19805;DHT22;10062;51.052;13.756;2023-05-10T06:21:07;14.30;1.00
19805;DHT22;10062;51.052;13.756;2023-05-10T06:23:41;14.40;1.00
19805;DHT22;10062;51.052;13.756;2023-05-10T06:26:12;14.70;1.00
19805;DHT22;10062;51.052;13.756;2023-05-10T06:28:44;14.70;1.00
19805;DHT22;10062;51.052;13.756;2023-05-10T06:31:16;14.90;99.90
19805;DHT22;10062;51.052;13.756;2023-05-10T06:33:48;14.80;99.90
19805;DHT22;10062;51.052;13.756;2023-05-10T06:36:19;14.90;99.90
19805;DHT22;10062;51.052;13.756;2023-05-10T06:38:53;15.10;99.90
19805;DHT22;10062;51.052;13.756;2023-05-10T06:41:25;15.40;99.90
19805;DHT22;10062;51.052;13.756;2023-05-10T06:43:56;15.50;99.90
19805;DHT22;10062;51.052;13.756;2023-05-10T06:46:28;15.40;99.90
19805;DHT22;10062;51.052;13.756;2023-05-10T06:49:00;15.50;99.90
19805;DHT22;10062;51.052;13.756;2023-05-10T06:51:31;15.80;99.90
19805;DHT22;10062;51.052;13.756;2023-05-10T06:54:05;15.90;99.90
19805;DHT22;10062;51.052;13.756;2023-05-10T06:56:37;16.20;99.90
19805;DHT22;10062;51.052;13.756;2023-05-10T06:59:08;16.60;99.90
19805;DHT22;10062;51.052;13.756;2023-05-10T07:01:40;16.50;97.20
19805;DHT22;10062;51.052;13.756;2023-05-10T07:04:12;16.30;99.90
19805;DHT22;10062;51.052;13.756;2023-05-10T07:06:44;16.80;99.90
19805;DHT22;10062;51.052;13.756;2023-05-10T07:09:17;16.70;58.20
19805;DHT22;10062;51.052;13.756;2023-05-10T07:11:49;16.70;40.10
19805;DHT22;10062;51.052;13.756;2023-05-10T07:14:21;16.90;17.20
19805;DHT22;10062;51.052;13.756;2023-05-10T07:24:31;17.30;1.00
19805;DHT22;10062;51.052;13.756;2023-05-10T07:27:03;17.60;1.00
19805;DHT22;10062;51.052;13.756;2023-05-10T07:29:35;17.90;1.00
19805;DHT22;10062;51.052;13.756;2023-05-10T07:32:07;17.70;1.00
19805;DHT22;10062;51.052;13.756;2023-05-10T07:34:39;17.90;1.00
19805;DHT22;10062;51.052;13.756;2023-05-10T07:37:10;18.50;1.00
19805;DHT22;10062;51.052;13.756;2023-05-10T07:39:44;19.10;1.00
19805;DHT22;10062;51.052;13.756;2023-05-10T07:42:15;19.40;1.00
19805;DHT22;10062;51.052;13.756;2023-05-10T07:44:47;19.80;1.00
19805;DHT22;10062;51.052;13.756;2023-05-10T07:47:18;21.40;1.00
19805;DHT22;10062;51.052;13.756;2023-05-10T07:49:50;20.10;1.00
19805;DHT22;10062;51.052;13.756;2023-05-10T07:52:22;20.40;1.00
19805;DHT22;10062;51.052;13.756;2023-05-10T07:54:55;19.30;1.00
19805;DHT22;10062;51.052;13.756;2023-05-10T07:59:59;19.40;1.00
19805;DHT22;10062;51.052;13.756;2023-05-10T08:02:31;18.90;1.00
19805;DHT22;10062;51.052;13.756;2023-05-10T08:05:02;19.40;1.00
19805;DHT22;10062;51.052;13.756;2023-05-10T08:07:35;19.50;1.00
19805;DHT22;10062;51.052;13.756;2023-05-10T08:10:09;19.60;1.00
19805;DHT22;10062;51.052;13.756;2023-05-10T08:15:13;19.50;1.00
19805;DHT22;10062;51.052;13.756;2023-05-10T08:17:45;19.90;1.00
19805;DHT22;10062;51.052;13.756;2023-05-10T08:20:17;20.70;1.00
19805;DHT22;10062;51.052;13.756;2023-05-10T08:25:22;21.00;1.00
19805;DHT22;10062;51.052;13.756;2023-05-10T08:27:54;21.80;1.00
19805;DHT22;10062;51.052;13.756;2023-05-10T08:30:26;21.80;1.00
19805;DHT22;10062;51.052;13.756;2023-05-10T08:32:57;22.60;1.00
19805;DHT22;10062;51.052;13.756;2023-05-10T08:35:29;23.70;1.00
19805;DHT22;10062;51.052;13.756;2023-05-10T08:38:01;24.30;1.00
19805;DHT22;10062;51.052;13.756;2023-05-10T08:40:34;24.80;1.00
19805;DHT22;10062;51.052;13.756;2023-05-10T08:43:09;25.20;1.00
19805;DHT22;10062;51.052;13.756;2023-05-10T08:45:42;25.10;1.00
19805;DHT22;10062;51.052;13.756;2023-05-10T08:48:16;25.90;1.00
19805;DHT22;10062;51.052;13.756;2023-05-10T08:50:48;25.50;1.00
19805;DHT22;10062;51.052;13.756;2023-05-10T08:53:24;26.30;1.00
19805;DHT22;10062;51.052;13.756;2023-05-10T08:55:59;26.80;1.00
19805;DHT22;10062;51.052;13.756;2023-05-10T08:58:30;25.90;1.00
19805;DHT22;10062;51.052;13.756;2023-05-10T09:01:02;27.60;1.00
19805;DHT22;10062;51.052;13.756;2023-05-10T09:03:35;28.10;1.00
19805;DHT22;10062;51.052;13.756;2023-05-10T09:06:06;31.20;1.00
19805;DHT22;10062;51.052;13.756;2023-05-10T09:08:39;31.00;1.00
19805;DHT22;10062;51.052;13.756;2023-05-10T09:11:13;30.40;1.00
19805;DHT22;10062;51.052;13.756;2023-05-10T09:13:44;30.80;1.00
19805;DHT22;10062;51.052;13.756;2023-05-10T09:16:17;29.80;1.00
19805;DHT22;10062;51.052;13.756;2023-05-10T09:18:49;32.80;1.00
19805;DHT22;10062;51.052;13.756;2023-05-10T09:21:20;32.70;1.00
19805;DHT22;10062;51.052;13.756;2023-05-10T09:23:52;34.20;1.00
19805;DHT22;10062;51.052;13.756;2023-05-10T09:26:26;34.30;1.00
19805;DHT22;10062;51.052;13.756;2023-05-10T09:28:58;33.40;1.00
19805;DHT22;10062;51.052;13.756;2023-05-10T09:31:47;33.80;1.00
19805;DHT22;10062;51.052;13.756;2023-05-10T09:34:28;35.90;1.00
19805;DHT22;10062;51.052;13.756;2023-05-10T09:37:02;38.30;1.00
19805;DHT22;10062;51.052;13.756;2023-05-10T09:39:35;38.20;1.00
19805;DHT22;10062;51.052;13.756;2023-05-10T09:42:09;39.30;1.00
19805;DHT22;10062;51.052;13.756;2023-05-10T09:44:41;35.80;1.00
19805;DHT22;10062;51.052;13.756;2023-05-10T09:47:17;36.10;1.00
19805;DHT22;10062;51.052;13.756;2023-05-10T09:49:49;35.50;1.00
19805;DHT22;10062;51.052;13.756;2023-05-10T09:52:21;36.50;1.00
19805;DHT22;10062;51.052;13.756;2023-05-10T09:54:53;39.50;1.00
19805;DHT22;10062;51.052;13.756;2023-05-10T09:57:27;40.90;1.00
19805;DHT22;10062;51.052;13.756;2023-05-10T10:00:00;35.30;1.00
19805;DHT22;10062;51.052;13.756;2023-05-10T10:02:46;37.10;1.00
19805;DHT22;10062;51.052;13.756;2023-05-10T10:05:18;40.50;1.00
19805;DHT22;10062;51.052;13.756;2023-05-10T10:07:49;39.20;1.00
19805;DHT22;10062;51.052;13.756;2023-05-10T10:10:22;38.90;1.00
19805;DHT22;10062;51.052;13.756;2023-05-10T10:12:55;32.10;1.00
19805;DHT22;10062;51.052;13.756;2023-05-10T10:15:27;34.90;1.00
19805;DHT22;10062;51.052;13.756;2023-05-10T10:17:59;33.70;1.00
19805;DHT22;10062;51.052;13.756;2023-05-10T10:20:31;36.10;1.00
19805;DHT22;10062;51.052;13.756;2023-05-10T10:23:03;37.40;1.00
19805;DHT22;10062;51.052;13.756;2023-05-10T10:25:35;36.30;1.00
19805;DHT22;10062;51.052;13.756;2023-05-10T10:28:16;38.70;1.00
19805;DHT22;10062;51.052;13.756;2023-05-10T10:30:53;36.70;1.00
19805;DHT22;10062;51.052;13.756;2023-05-10T10:33:43;36.70;1.00
19805;DHT22;10062;51.052;13.756;2023-05-10T10:36:20;35.20;1.00
19805;DHT22;10062;51.052;13.756;2023-05-10T10:38:56;36.60;1.00
19805;DHT22;10062;51.052;13.756;2023-05-10T10:41:31;37.20;1.00
19805;DHT22;10062;51.052;13.756;2023-05-10T10:44:24;37.10;1.00
19805;DHT22;10062;51.052;13.756;2023-05-10T10:47:00;37.50;1.00
19805;DHT22;10062;51.052;13.756;2023-05-10T10:49:33;38.20;1.00
19805;DHT22;10062;51.052;13.756;2023-05-10T10:52:17;33.60;1.00
19805;DHT22;10062;51.052;13.756;2023-05-10T10:54:52;31.90;1.00
19805;DHT22;10062;51.052;13.756;2023-05-10T10:57:25;31.20;1.00
19805;DHT22;10062;51.052;13.756;2023-05-10T11:03:09;31.20;1.00
19805;DHT22;10062;51.052;13.756;2023-05-10T11:05:44;28.90;1.00
19805;DHT22;10062;51.052;13.756;2023-05-10T11:08:18;28.90;1.00
19805;DHT22;10062;51.052;13.756;2023-05-10T11:10:54;30.80;1.00
19805;DHT22;10062;51.052;13.756;2023-05-10T11:13:37;31.00;1.00
19805;DHT22;10062;51.052;13.756;2023-05-10T11:16:12;32.00;1.00
19805;DHT22;10062;51.052;13.756;2023-05-10T11:18:58;31.00;1.00
19805;DHT22;10062;51.052;13.756;2023-05-10T11:21:31;28.80;1.00
19805;DHT22;10062;51.052;13.756;2023-05-10T11:24:12;28.50;1.00
19805;DHT22;10062;51.052;13.756;2023-05-10T11:26:44;27.80;1.00
19805;DHT22;10062;51.052;13.756;2023-05-10T11:29:17;28.30;1.00
19805;DHT22;10062;51.052;13.756;2023-05-10T11:31:49;26.90;1.00
19805;DHT22;10062;51.052;13.756;2023-05-10T11:34:26;26.70;1.00
19805;DHT22;10062;51.052;13.756;2023-05-10T11:36:58;26.80;1.00
19805;DHT22;10062;51.052;13.756;2023-05-10T11:39:31;27.00;1.00
19805;DHT22;10062;51.052;13.756;2023-05-10T11:42:03;26.90;1.00
19805;DHT22;10062;51.052;13.756;2023-05-10T11:44:35;26.70;1.00
19805;DHT22;10062;51.052;13.756;2023-05-10T11:47:07;25.80;1.00
19805;DHT22;10062;51.052;13.756;2023-05-10T11:49:43;25.10;1.00
19805;DHT22;10062;51.052;13.756;2023-05-10T11:52:15;25.60;1.00
19805;DHT22;10062;51.052;13.756;2023-05-10T11:54:51;24.80;1.00
19805;DHT22;10062;51.052;13.756;2023-05-10T11:57:26;24.80;1.00
19805;DHT22;10062;51.052;13.756;2023-05-10T11:59:58;25.00;1.00
19805;DHT22;10062;51.052;13.756;2023-05-10T12:02:30;25.20;1.00
19805;DHT22;10062;51.052;13.756;2023-05-10T12:05:04;25.10;1.00
19805;DHT22;10062;51.052;13.756;2023-05-10T12:07:36;25.00;1.00
19805;DHT22;10062;51.052;13.756;2023-05-10T12:10:09;25.50;1.00
19805;DHT22;10062;51.052;13.756;2023-05-10T12:12:43;26.00;1.00
19805;DHT22;10062;51.052;13.756;2023-05-10T12:15:18;26.10;1.00
19805;DHT22;10062;51.052;13.756;2023-05-10T12:17:51;25.80;1.00
19805;DHT22;10062;51.052;13.756;2023-05-10T12:20:26;26.10;1.00
19805;DHT22;10062;51.052;13.756;2023-05-10T12:22:59;25.80;1.00
19805;DHT22;10062;51.052;13.756;2023-05-10T12:25:34;26.20;1.00
19805;DHT22;10062;51.052;13.756;2023-05-10T12:28:07;26.30;1.00
19805;DHT22;10062;51.052;13.756;2023-05-10T12:30:39;26.00;1.00
19805;DHT22;10062;51.052;13.756;2023-05-10T12:33:12;25.90;1.00
19805;DHT22;10062;51.052;13.756;2023-05-10T12:35:47;26.30;1.00
19805;DHT22;10062;51.052;13.756;2023-05-10T12:38:25;26.60;1.00
19805;DHT22;10062;51.052;13.756;2023-05-10T12:40:58;26.90;1.00
19805;DHT22;10062;51.052;13.756;2023-05-10T12:43:30;26.30;1.00
19805;DHT22;10062;51.052;13.756;2023-05-10T12:46:06;26.50;1.00
19805;DHT22;10062;51.052;13.756;2023-05-10T12:48:38;26.00;1.00
19805;DHT22;10062;51.052;13.756;2023-05-10T12:51:11;26.00;1.00
19805;DHT22;10062;51.052;13.756;2023-05-10T12:53:46;26.10;1.00
19805;DHT22;10062;51.052;13.756;2023-05-10T12:56:18;26.30;1.00
19805;DHT22;10062;51.052;13.756;2023-05-10T12:58:50;26.50;1.00
19805;DHT22;10062;51.052;13.756;2023-05-10T13:01:22;26.10;1.00
19805;DHT22;10062;51.052;13.756;2023-05-10T13:03:53;26.10;1.00
19805;DHT22;10062;51.052;13.756;2023-05-10T13:06:26;26.00;1.00
19805;DHT22;10062;51.052;13.756;2023-05-10T13:08:58;25.70;1.00
19805;DHT22;10062;51.052;13.756;2023-05-10T13:11:30;25.80;1.00
19805;DHT22;10062;51.052;13.756;2023-05-10T13:14:01;25.80;1.00
19805;DHT22;10062;51.052;13.756;2023-05-10T13:16:33;25.60;1.00
19805;DHT22;10062;51.052;13.756;2023-05-10T13:19:05;25.60;1.00
19805;DHT22;10062;51.052;13.756;2023-05-10T13:21:38;25.90;1.00
19805;DHT22;10062;51.052;13.756;2023-05-10T13:24:11;26.10;1.00
19805;DHT22;10062;51.052;13.756;2023-05-10T13:26:44;26.00;1.00
19805;DHT22;10062;51.052;13.756;2023-05-10T13:29:15;26.10;1.00
19805;DHT22;10062;51.052;13.756;2023-05-10T13:31:48;26.30;1.00
19805;DHT22;10062;51.052;13.756;2023-05-10T13:34:20;26.00;1.00
19805;DHT22;10062;51.052;13.756;2023-05-10T13:36:53;26.40;1.00
19805;DHT22;10062;51.052;13.756;2023-05-10T13:39:26;25.40;1.00
19805;DHT22;10062;51.052;13.756;2023-05-10T13:42:00;25.40;1.00
19805;DHT22;10062;51.052;13.756;2023-05-10T13:44:31;25.30;1.00
19805;DHT22;10062;51.052;13.756;2023-05-10T13:47:04;25.50;1.00
19805;DHT22;10062;51.052;13.756;2023-05-10T13:49:35;25.30;1.00
19805;DHT22;10062;51.052;13.756;2023-05-10T13:52:08;25.40;1.00
19805;DHT22;10062;51.052;13.756;2023-05-10T13:54:40;25.50;1.00
19805;DHT22;10062;51.052;13.756;2023-05-10T13:57:12;25.30;1.00
19805;DHT22;10062;51.052;13.756;2023-05-10T13:59:44;25.50;1.00
19805;DHT22;10062;51.052;13.756;2023-05-10T14:02:16;25.70;1.00
19805;DHT22;10062;51.052;13.756;2023-05-10T14:04:47;25.70;1.00
19805;DHT22;10062;51.052;13.756;2023-05-10T14:07:20;25.60;1.00
19805;DHT22;10062;51.052;13.756;2023-05-10T14:09:52;25.50;1.00
19805;DHT22;10062;51.052;13.756;2023-05-10T14:12:24;25.90;1.00
19805;DHT22;10062;51.052;13.756;2023-05-10T14:14:55;26.30;1.00
19805;DHT22;10062;51.052;13.756;2023-05-10T14:17:28;26.20;1.00
19805;DHT22;10062;51.052;13.756;2023-05-10T14:20:00;25.80;1.00
19805;DHT22;10062;51.052;13.756;2023-05-10T14:22:33;25.90;1.00
19805;DHT22;10062;51.052;13.756;2023-05-10T14:25:05;25.70;1.00
19805;DHT22;10062;51.052;13.756;2023-05-10T14:27:37;25.90;1.00
19805;DHT22;10062;51.052;13.756;2023-05-10T14:30:09;25.80;1.00
19805;DHT22;10062;51.052;13.756;2023-05-10T14:32:41;25.60;1.00
19805;DHT22;10062;51.052;13.756;2023-05-10T14:35:12;28.60;1.00
19805;DHT22;10062;51.052;13.756;2023-05-10T14:37:45;25.70;1.00
19805;DHT22;10062;51.052;13.756;2023-05-10T14:40:17;25.30;1.00
19805;DHT22;10062;51.052;13.756;2023-05-10T14:42:50;24.90;1.00
19805;DHT22;10062;51.052;13.756;2023-05-10T14:45:23;24.90;1.00
19805;DHT22;10062;51.052;13.756;2023-05-10T14:47:54;24.90;1.00
19805;DHT22;10062;51.052;13.756;2023-05-10T14:50:26;25.10;1.00
19805;DHT22;10062;51.052;13.756;2023-05-10T14:52:59;24.80;1.00
19805;DHT22;10062;51.052;13.756;2023-05-10T14:55:31;24.90;1.00
19805;DHT22;10062;51.052;13.756;2023-05-10T14:58:03;24.70;1.00
19805;DHT22;10062;51.052;13.756;2023-05-10T15:00:35;25.00;1.00
19805;DHT22;10062;51.052;13.756;2023-05-10T15:03:06;25.10;1.00
19805;DHT22;10062;51.052;13.756;2023-05-10T15:05:38;25.10;1.00
19805;DHT22;10062;51.052;13.756;2023-05-10T15:08:11;25.00;1.00
19805;DHT22;10062;51.052;13.756;2023-05-10T15:10:43;25.10;1.00
19805;DHT22;10062;51.052;13.756;2023-05-10T15:13:14;24.90;1.00
19805;DHT22;10062;51.052;13.756;2023-05-10T15:15:46;24.90;1.00
19805;DHT22;10062;51.052;13.756;2023-05-10T15:18:17;24.60;1.00
19805;DHT22;10062;51.052;13.756;2023-05-10T15:20:49;24.50;1.00
19805;DHT22;10062;51.052;13.756;2023-05-10T15:23:22;24.30;1.00
19805;DHT22;10062;51.052;13.756;2023-05-10T15:25:54;23.90;1.00
19805;DHT22;10062;51.052;13.756;2023-05-10T15:28:26;23.60;1.00
19805;DHT22;10062;51.052;13.756;2023-05-10T15:30:57;23.50;1.00
19805;DHT22;10062;51.052;13.756;2023-05-10T15:33:29;23.20;1.00
19805;DHT22;10062;51.052;13.756;2023-05-10T15:36:00;23.30;1.00
19805;DHT22;10062;51.052;13.756;2023-05-10T15:38:35;23.30;1.00
19805;DHT22;10062;51.052;13.756;2023-05-10T15:41:07;23.30;1.00
19805;DHT22;10062;51.052;13.756;2023-05-10T15:43:39;23.30;1.00
19805;DHT22;10062;51.052;13.756;2023-05-10T15:46:11;23.30;1.00
19805;DHT22;10062;51.052;13.756;2023-05-10T15:48:42;23.20;1.00
19805;DHT22;10062;51.052;13.756;2023-05-10T15:51:14;23.10;1.00
19805;DHT22;10062;51.052;13.756;2023-05-10T15:53:47;22.90;1.00
19805;DHT22;10062;51.052;13.756;2023-05-10T15:56:19;22.70;1.00
19805;DHT22;10062;51.052;13.756;2023-05-10T15:58:50;22.70;1.00
19805;DHT22;10062;51.052;13.756;2023-05-10T16:01:22;22.70;1.00
19805;DHT22;10062;51.052;13.756;2023-05-10T16:03:53;22.60;1.00
19805;DHT22;10062;51.052;13.756;2023-05-10T16:06:25;22.50;1.00
19805;DHT22;10062;51.052;13.756;2023-05-10T16:08:58;22.60;1.00
19805;DHT22;10062;51.052;13.756;2023-05-10T16:11:30;22.60;1.00
19805;DHT22;10062;51.052;13.756;2023-05-10T16:14:02;22.20;1.00
19805;DHT22;10062;51.052;13.756;2023-05-10T16:16:34;22.00;1.00
19805;DHT22;10062;51.052;13.756;2023-05-10T16:19:06;22.20;1.00
19805;DHT22;10062;51.052;13.756;2023-05-10T16:21:37;22.30;1.00
19805;DHT22;10062;51.052;13.756;2023-05-10T16:24:10;22.30;1.00
19805;DHT22;10062;51.052;13.756;2023-05-10T16:26:42;21.90;1.00
19805;DHT22;10062;51.052;13.756;2023-05-10T16:29:14;22.00;1.00
19805;DHT22;10062;51.052;13.756;2023-05-10T16:31:46;21.90;1.00
19805;DHT22;10062;51.052;13.756;2023-05-10T16:34:18;21.70;1.00
19805;DHT22;10062;51.052;13.756;2023-05-10T16:36:53;21.60;1.00
19805;DHT22;10062;51.052;13.756;2023-05-10T16:39:26;21.80;1.00
19805;DHT22;10062;51.052;13.756;2023-05-10T16:41:58;21.70;1.00
19805;DHT22;10062;51.052;13.756;2023-05-10T16:44:30;21.70;1.00
19805;DHT22;10062;51.052;13.756;2023-05-10T16:47:02;21.70;1.00
19805;DHT22;10062;51.052;13.756;2023-05-10T16:49:34;21.70;1.00
19805;DHT22;10062;51.052;13.756;2023-05-10T16:52:07;21.70;1.00
19805;DHT22;10062;51.052;13.756;2023-05-10T16:54:40;21.70;1.00
19805;DHT22;10062;51.052;13.756;2023-05-10T16:57:11;21.50;13.30
19805;DHT22;10062;51.052;13.756;2023-05-10T16:59:43;21.30;51.80
19805;DHT22;10062;51.052;13.756;2023-05-10T17:02:14;21.30;89.20
19805;DHT22;10062;51.052;13.756;2023-05-10T17:04:46;21.40;47.70
19805;DHT22;10062;51.052;13.756;2023-05-10T17:07:18;21.50;46.80
19805;DHT22;10062;51.052;13.756;2023-05-10T17:09:51;21.40;99.90